sensor_id;sensor_type;location;lat;lon;timestamp;temperature;humidity
78649;DHT22;67962;47.310;9.642;2023-07-02T17:57:33;23.10;55.80
78649;DHT22;67962;47.310;9.642;2023-07-02T18:00:06;23.00;57.30
78649;DHT22;67962;47.310;9.642;2023-07-02T18:02:33;23.20;56.60
78649;DHT22;67962;47.310;9.642;2023-07-02T18:05:00;23.50;54.40
78649;DHT22;67962;47.310;9.642;2023-07-02T18:07:26;23.70;53.10
78649;DHT22;67962;47.310;9.642;2023-07-02T18:09:53;23.90;53.80
78649;DHT22;67962;47.310;9.642;2023-07-02T18:12:22;24.10;52.90
78649;DHT22;67962;47.310;9.642;2023-07-02T18:14:49;24.10;53.40
78649;DHT22;67962;47.310;9.642;2023-07-02T18:17:16;24.10;53.30
78649;DHT22;67962;47.310;9.642;2023-07-02T18:19:43;24.10;53.20
78649;DHT22;67962;47.310;9.642;2023-07-02T18:22:10;24.10;51.40
78649;DHT22;67962;47.310;9.642;2023-07-02T18:24:39;24.10;51.20
78649;DHT22;67962;47.310;9.642;2023-07-02T18:27:07;24.10;51.20
78649;DHT22;67962;47.310;9.642;2023-07-02T18:29:35;24.10;52.40
78649;DHT22;67962;47.310;9.642;2023-07-02T18:32:04;24.10;51.60
78649;DHT22;67962;47.310;9.642;2023-07-02T18:34:32;24.10;51.00
78649;DHT22;67962;47.310;9.642;2023-07-02T18:37:03;24.10;52.10
78649;DHT22;67962;47.310;9.642;2023-07-02T18:39:32;24.10;51.60
78649;DHT22;67962;47.310;9.642;2023-07-02T18:42:07;24.10;51.60
78649;DHT22;67962;47.310;9.642;2023-07-02T18:44:34;24.10;51.50
78649;DHT22;67962;47.310;9.642;2023-07-02T18:47:02;24.00;52.50
78649;DHT22;67962;47.310;9.642;2023-07-02T18:49:31;23.90;51.80
78649;DHT22;67962;47.310;9.642;2023-07-02T18:52:12;23.90;51.50
78649;DHT22;67962;47.310;9.642;2023-07-02T18:54:41;23.80;52.80
78649;DHT22;67962;47.310;9.642;2023-07-02T18:57:10;23.70;52.90
78649;DHT22;67962;47.310;9.642;2023-07-02T18:59:44;23.70;51.60
78649;DHT22;67962;47.310;9.642;2023-07-02T19:02:13;23.60;51.90
78649;DHT22;67962;47.310;9.642;2023-07-02T19:04:40;23.50;50.80
78649;DHT22;67962;47.310;9.642;2023-07-02T19:07:09;23.40;50.40
78649;DHT22;67962;47.310;9.642;2023-07-02T19:09:37;23.40;51.30
78649;DHT22;67962;47.310;9.642;2023-07-02T19:12:05;23.40;52.10
78649;DHT22;67962;47.310;9.642;2023-07-02T19:14:36;23.50;52.40
78649;DHT22;67962;47.310;9.642;2023-07-02T19:17:09;23.50;52.10
78649;DHT22;67962;47.310;9.642;2023-07-02T19:19:37;23.50;52.20
78649;DHT22;67962;47.310;9.642;2023-07-02T19:22:05;23.40;52.40
78649;DHT22;67962;47.310;9.642;2023-07-02T19:24:31;23.40;52.30
78649;DHT22;67962;47.310;9.642;2023-07-02T19:26:58;23.30;52.40
78649;DHT22;67962;47.310;9.642;2023-07-02T19:29:24;23.30;51.10
78649;DHT22;67962;47.310;9.642;2023-07-02T19:31:51;23.30;52.40
78649;DHT22;67962;47.310;9.642;2023-07-02T19:34:18;23.30;52.60
78649;DHT22;67962;47.310;9.642;2023-07-02T19:36:45;23.20;52.50
78649;DHT22;67962;47.310;9.642;2023-07-02T19:39:14;23.20;52.30
78649;DHT22;67962;47.310;9.642;2023-07-02T19:41:41;23.10;53.50
78649;DHT22;67962;47.310;9.642;2023-07-02T19:44:08;23.10;53.10
78649;DHT22;67962;47.310;9.642;2023-07-02T19:46:34;23.10;52.70
78649;DHT22;67962;47.310;9.642;2023-07-02T19:49:01;23.10;53.70
78649;DHT22;67962;47.310;9.642;2023-07-02T19:51:27;23.10;52.40
78649;DHT22;67962;47.310;9.642;2023-07-02T19:53:53;23.00;52.40
78649;DHT22;67962;47.310;9.642;2023-07-02T19:56:20;23.00;52.60
78649;DHT22;67962;47.310;9.642;2023-07-02T19:58:48;23.00;52.80
78649;DHT22;67962;47.310;9.642;2023-07-02T20:01:15;23.00;53.60
78649;DHT22;67962;47.310;9.642;2023-07-02T20:03:42;23.00;53.20
78649;DHT22;67962;47.310;9.642;2023-07-02T20:06:08;23.00;52.90
78649;DHT22;67962;47.310;9.642;2023-07-02T20:08:36;23.10;52.70
78649;DHT22;67962;47.310;9.642;2023-07-02T20:11:02;23.10;53.00
78649;DHT22;67962;47.310;9.642;2023-07-02T20:13:30;23.00;52.90
78649;DHT22;67962;47.310;9.642;2023-07-02T20:15:56;23.00;52.70
78649;DHT22;67962;47.310;9.642;2023-07-02T20:18:24;22.90;53.90
78649;DHT22;67962;47.310;9.642;2023-07-02T20:20:50;22.90;53.60
78649;DHT22;67962;47.310;9.642;2023-07-02T20:23:25;22.90;53.50
78649;DHT22;67962;47.310;9.642;2023-07-02T20:25:53;23.00;53.10
78649;DHT22;67962;47.310;9.642;2023-07-02T20:28:19;23.00;53.20
78649;DHT22;67962;47.310;9.642;2023-07-02T20:30:45;23.00;53.80
78649;DHT22;67962;47.310;9.642;2023-07-02T20:33:12;22.90;53.10
78649;DHT22;67962;47.310;9.642;2023-07-02T20:35:40;23.00;54.30
78649;DHT22;67962;47.310;9.642;2023-07-02T20:38:08;23.00;54.10
78649;DHT22;67962;47.310;9.642;2023-07-02T20:40:34;22.90;54.50
78649;DHT22;67962;47.310;9.642;2023-07-02T20:43:00;22.90;54.60
78649;DHT22;67962;47.310;9.642;2023-07-02T20:45:27;22.90;54.40
78649;DHT22;67962;47.310;9.642;2023-07-02T20:47:57;22.90;55.50
78649;DHT22;67962;47.310;9.642;2023-07-02T20:50:28;22.80;54.60
78649;DHT22;67962;47.310;9.642;2023-07-02T20:52:55;22.70;54.40
78649;DHT22;67962;47.310;9.642;2023-07-02T20:55:22;22.70;53.40
78649;DHT22;67962;47.310;9.642;2023-07-02T20:57:49;22.80;53.50
78649;DHT22;67962;47.310;9.642;2023-07-02T21:00:15;22.80;53.40
78649;DHT22;67962;47.310;9.642;2023-07-02T21:02:42;22.90;53.20
78649;DHT22;67962;47.310;9.642;2023-07-02T21:05:09;22.90;53.60
78649;DHT22;67962;47.310;9.642;2023-07-02T21:07:35;22.90;53.70
78649;DHT22;67962;47.310;9.642;2023-07-02T21:10:01;22.90;53.50
78649;DHT22;67962;47.310;9.642;2023-07-02T21:12:28;22.90;54.10
78649;DHT22;67962;47.310;9.642;2023-07-02T21:14:54;22.90;54.40
78649;DHT22;67962;47.310;9.642;2023-07-02T21:17:20;22.80;53.70
78649;DHT22;67962;47.310;9.642;2023-07-02T21:19:46;22.80;53.90
78649;DHT22;67962;47.310;9.642;2023-07-02T21:22:12;22.80;54.50
78649;DHT22;67962;47.310;9.642;2023-07-02T21:24:38;22.90;53.30
78649;DHT22;67962;47.310;9.642;2023-07-02T21:27:04;22.80;53.80
78649;DHT22;67962;47.310;9.642;2023-07-02T21:29:30;22.80;54.30
78649;DHT22;67962;47.310;9.642;2023-07-02T21:31:56;22.80;54.10
78649;DHT22;67962;47.310;9.642;2023-07-02T21:34:22;22.90;54.40
78649;DHT22;67962;47.310;9.642;2023-07-02T21:36:49;22.90;54.60
78649;DHT22;67962;47.310;9.642;2023-07-02T21:39:15;22.90;54.90
78649;DHT22;67962;47.310;9.642;2023-07-02T21:41:40;22.90;55.20
78649;DHT22;67962;47.310;9.642;2023-07-02T21:44:06;22.80;55.10
78649;DHT22;67962;47.310;9.642;2023-07-02T21:46:32;22.80;54.50
78649;DHT22;67962;47.310;9.642;2023-07-02T21:48:58;22.90;55.20
78649;DHT22;67962;47.310;9.642;2023-07-02T21:51:24;22.80;54.90
78649;DHT22;67962;47.310;9.642;2023-07-02T21:53:50;22.80;56.20
78649;DHT22;67962;47.310;9.642;2023-07-02T21:56:17;22.70;55.90
78649;DHT22;67962;47.310;9.642;2023-07-02T21:58:42;22.60;55.60
78649;DHT22;67962;47.310;9.642;2023-07-02T22:01:11;22.60;55.80
78649;DHT22;67962;47.310;9.642;2023-07-02T22:03:38;22.50;56.10
78649;DHT22;67962;47.310;9.642;2023-07-02T22:06:03;22.40;56.60
78649;DHT22;67962;47.310;9.642;2023-07-02T22:08:29;22.40;56.60
78649;DHT22;67962;47.310;9.642;2023-07-02T22:10:55;22.50;56.80
78649;DHT22;67962;47.310;9.642;2023-07-02T22:13:21;22.50;56.20
78649;DHT22;67962;47.310;9.642;2023-07-02T22:15:47;22.50;55.50
78649;DHT22;67962;47.310;9.642;2023-07-02T22:18:13;22.60;55.70
78649;DHT22;67962;47.310;9.642;2023-07-02T22:20:39;22.50;56.00
78649;DHT22;67962;47.310;9.642;2023-07-02T22:23:09;22.50;55.80
78649;DHT22;67962;47.310;9.642;2023-07-02T22:25:35;22.40;56.20
78649;DHT22;67962;47.310;9.642;2023-07-02T22:28:03;22.40;56.50
78649;DHT22;67962;47.310;9.642;2023-07-02T22:30:29;22.40;56.20
78649;DHT22;67962;47.310;9.642;2023-07-02T22:32:55;22.30;57.00
78649;DHT22;67962;47.310;9.642;2023-07-02T22:35:20;22.30;57.40
78649;DHT22;67962;47.310;9.642;2023-07-02T22:37:46;22.20;56.80
78649;DHT22;67962;47.310;9.642;2023-07-02T22:40:15;22.20;57.00
78649;DHT22;67962;47.310;9.642;2023-07-02T22:42:41;22.20;56.70
78649;DHT22;67962;47.310;9.642;2023-07-02T22:45:09;22.20;56.90
78649;DHT22;67962;47.310;9.642;2023-07-02T22:47:36;22.20;57.00
78649;DHT22;67962;47.310;9.642;2023-07-02T22:50:03;22.20;56.90
78649;DHT22;67962;47.310;9.642;2023-07-02T22:52:30;22.20;56.40
78649;DHT22;67962;47.310;9.642;2023-07-02T22:54:56;22.20;56.50
78649;DHT22;67962;47.310;9.642;2023-07-02T22:57:22;22.20;56.20
78649;DHT22;67962;47.310;9.642;2023-07-02T22:59:48;22.20;57.30
78649;DHT22;67962;47.310;9.642;2023-07-02T23:02:15;22.10;57.20
78649;DHT22;67962;47.310;9.642;2023-07-02T23:04:41;22.00;57.50
78649;DHT22;67962;47.310;9.642;2023-07-02T23:07:06;22.00;56.60
78649;DHT22;67962;47.310;9.642;2023-07-02T23:09:32;22.10;55.60
78649;DHT22;67962;47.310;9.642;2023-07-02T23:11:58;22.10;55.40
78649;DHT22;67962;47.310;9.642;2023-07-02T23:14:24;22.10;55.40
78649;DHT22;67962;47.310;9.642;2023-07-02T23:16:49;22.10;53.60
78649;DHT22;67962;47.310;9.642;2023-07-02T23:19:15;22.10;53.40
78649;DHT22;67962;47.310;9.642;2023-07-02T23:21:41;22.10;54.90
78649;DHT22;67962;47.310;9.642;2023-07-02T23:24:12;22.10;54.90
78649;DHT22;67962;47.310;9.642;2023-07-02T23:26:42;22.20;54.80
78649;DHT22;67962;47.310;9.642;2023-07-02T23:29:14;22.20;54.20
78649;DHT22;67962;47.310;9.642;2023-07-02T23:31:54;22.20;52.70
78649;DHT22;67962;47.310;9.642;2023-07-02T23:34:24;22.20;53.10
78649;DHT22;67962;47.310;9.642;2023-07-02T23:37:06;22.10;52.70
78649;DHT22;67962;47.310;9.642;2023-07-02T23:39:36;22.20;52.80
78649;DHT22;67962;47.310;9.642;2023-07-02T23:42:03;22.20;52.00
78649;DHT22;67962;47.310;9.642;2023-07-02T23:44:29;22.10;52.50
78649;DHT22;67962;47.310;9.642;2023-07-02T23:46:55;22.10;52.70
78649;DHT22;67962;47.310;9.642;2023-07-02T23:49:21;22.20;52.40
78649;DHT22;67962;47.310;9.642;2023-07-02T23:51:46;22.20;52.50
78649;DHT22;67962;47.310;9.642;2023-07-02T23:54:12;22.20;51.60
78649;DHT22;67962;47.310;9.642;2023-07-02T23:56:38;22.20;51.60
78649;DHT22;67962;47.310;9.642;2023-07-02T23:59:03;22.10;52.10
